createdAt,value
2017-02-01T00:00:33.287Z,1012.43
2017-02-01T00:05:29.806Z,1012.49
2017-02-01T00:10:26.051Z,1012.40
2017-02-01T00:15:22.445Z,1012.40
2017-02-01T00:20:18.784Z,1012.21
2017-02-01T00:25:17.075Z,1012.24
2017-02-01T00:30:13.080Z,1012.39
2017-02-01T00:35:09.648Z,1012.32
2017-02-01T00:40:05.923Z,1012.37
2017-02-01T00:45:02.708Z,1012.26
2017-02-01T00:49:58.941Z,1012.13
2017-02-01T00:54:55.363Z,1012.19
2017-02-01T00:59:51.545Z,1012.26
2017-02-01T01:04:48.137Z,1012.20
2017-02-01T01:09:44.678Z,1012.17
2017-02-01T01:14:40.617Z,1012.30
2017-02-01T01:19:36.958Z,1012.26
2017-02-01T01:24:33.281Z,1012.16
2017-02-01T01:29:29.776Z,1012.21
2017-02-01T01:34:26.176Z,1012.25
2017-02-01T01:39:22.793Z,1012.35
2017-02-01T01:44:18.896Z,1012.41
2017-02-01T01:49:15.312Z,1012.31
2017-02-01T01:54:11.471Z,1012.38
2017-02-01T01:59:07.831Z,1012.30
2017-02-01T02:04:03.981Z,1012.33
2017-02-01T02:09:00.269Z,1012.26
2017-02-01T02:13:56.887Z,1012.18
2017-02-01T02:18:53.270Z,1012.20
2017-02-01T02:23:50.281Z,1012.11
2017-02-01T02:28:46.707Z,1012.12
2017-02-01T02:33:43.168Z,1012.15
2017-02-01T02:38:40.366Z,1012.15
2017-02-01T02:43:36.607Z,1012.08
2017-02-01T02:48:32.906Z,1012.01
2017-02-01T02:53:29.182Z,1012.02
2017-02-01T02:58:25.630Z,1012.00
2017-02-01T03:03:22.284Z,1011.93
2017-02-01T03:08:18.604Z,1011.98
2017-02-01T03:13:15.321Z,1011.93
2017-02-01T03:18:11.605Z,1011.91
2017-02-01T03:23:09.549Z,1011.84
2017-02-01T03:28:05.351Z,1011.72
2017-02-01T03:33:02.387Z,1011.66
2017-02-01T03:37:58.783Z,1011.60
2017-02-01T03:42:55.189Z,1011.59
2017-02-01T03:47:51.607Z,1011.56
2017-02-01T03:52:47.599Z,1011.53
2017-02-01T03:57:44.340Z,1011.48
2017-02-01T04:02:40.499Z,1011.43
2017-02-01T04:07:37.508Z,1011.41
2017-02-01T04:12:33.889Z,1011.36
2017-02-01T04:17:30.268Z,1011.36
2017-02-01T04:22:26.908Z,1011.44
2017-02-01T04:27:23.282Z,1011.31
2017-02-01T04:32:19.853Z,1011.35
2017-02-01T04:37:16.501Z,1011.37
2017-02-01T04:42:13.018Z,1011.32
2017-02-01T04:47:09.495Z,1011.42
2017-02-01T04:52:05.819Z,1011.22
2017-02-01T04:57:02.016Z,1011.28
2017-02-01T05:01:58.587Z,1011.34
2017-02-01T05:06:54.925Z,1011.38
2017-02-01T05:11:51.359Z,1011.41
2017-02-01T05:16:47.601Z,1011.36
2017-02-01T05:21:44.751Z,1011.38
2017-02-01T05:26:41.486Z,1011.38
2017-02-01T05:31:37.742Z,1011.36
2017-02-01T05:36:34.295Z,1011.45
2017-02-01T05:41:30.983Z,1011.43
2017-02-01T05:46:27.296Z,1011.40
2017-02-01T05:51:23.679Z,1011.38
2017-02-01T05:56:21.171Z,1011.47
2017-02-01T06:01:17.279Z,1011.39
2017-02-01T06:06:13.898Z,1011.36
2017-02-01T06:11:10.178Z,1011.31
2017-02-01T06:16:07.079Z,1011.38
2017-02-01T06:21:03.455Z,1011.35
2017-02-01T06:25:59.878Z,1011.36
2017-02-01T06:30:56.232Z,1011.38
2017-02-01T06:35:52.713Z,1011.31
2017-02-01T06:40:49.394Z,1011.40
2017-02-01T06:45:45.815Z,1011.32
2017-02-01T06:50:42.057Z,1011.29
2017-02-01T06:55:41.078Z,1011.32
2017-02-01T07:00:36.863Z,1011.25
2017-02-01T07:05:33.469Z,1011.24
2017-02-01T07:10:30.810Z,1011.25
2017-02-01T07:15:27.975Z,1011.20
2017-02-01T07:20:24.433Z,1011.04
2017-02-01T07:25:20.688Z,1011.14
2017-02-01T07:30:17.318Z,1011.08
2017-02-01T07:35:13.747Z,1011.07
2017-02-01T07:40:10.215Z,1011.14
2017-02-01T07:45:07.403Z,1011.13
2017-02-01T07:50:04.359Z,1011.11
2017-02-01T07:55:00.820Z,1011.09
2017-02-01T07:59:57.340Z,1011.15
2017-02-01T08:04:53.700Z,1011.17
2017-02-01T08:09:50.181Z,1011.17
2017-02-01T08:14:46.508Z,1011.17
2017-02-01T08:19:43.736Z,1011.21
2017-02-01T08:24:40.183Z,1011.14
2017-02-01T08:29:36.872Z,1011.10
2017-02-01T08:34:33.368Z,1011.16
2017-02-01T08:39:29.874Z,1011.00
2017-02-01T08:44:27.346Z,1010.98
2017-02-01T08:49:23.748Z,1011.08
2017-02-01T08:54:20.688Z,1010.96
2017-02-01T08:59:17.067Z,1010.98
2017-02-01T09:04:14.460Z,1011.01
2017-02-01T09:09:10.709Z,1010.96
2017-02-01T09:14:07.316Z,1010.92
2017-02-01T09:19:07.861Z,1010.91
2017-02-01T09:24:03.977Z,1010.81
2017-02-01T09:29:00.929Z,1010.76
2017-02-01T09:33:57.434Z,1010.73
2017-02-01T09:38:54.538Z,1010.70
2017-02-01T09:43:51.328Z,1010.81
2017-02-01T09:48:48.966Z,1010.89
2017-02-01T09:53:45.173Z,1010.80
2017-02-01T09:58:41.736Z,1010.82
2017-02-01T10:03:38.232Z,1010.81
2017-02-01T10:08:34.649Z,1010.72
2017-02-01T10:13:31.195Z,1010.77
2017-02-01T10:18:27.724Z,1010.73
2017-02-01T10:23:24.558Z,1010.65
2017-02-01T10:28:20.865Z,1010.54
2017-02-01T10:33:17.547Z,1010.56
2017-02-01T10:38:13.974Z,1010.53
2017-02-01T10:43:10.376Z,1010.44
2017-02-01T10:48:06.882Z,1010.46
2017-02-01T10:53:03.440Z,1010.36
2017-02-01T10:58:00.107Z,1010.36
2017-02-01T11:02:56.620Z,1010.31
2017-02-01T11:07:53.299Z,1010.24
2017-02-01T11:12:50.138Z,1010.07
2017-02-01T11:17:46.412Z,1009.98
2017-02-01T11:22:43.034Z,1009.88
2017-02-01T11:27:40.123Z,1009.74
2017-02-01T11:32:36.625Z,1009.64
2017-02-01T11:37:33.251Z,1009.62
2017-02-01T11:42:29.610Z,1009.66
2017-02-01T11:47:25.602Z,1009.40
2017-02-01T11:52:21.809Z,1009.35
2017-02-01T11:57:18.835Z,1009.32
2017-02-01T12:02:15.477Z,1009.30
2017-02-01T12:07:12.562Z,1009.20
2017-02-01T12:12:09.065Z,1009.19
2017-02-01T12:17:05.701Z,1009.03
2017-02-01T12:22:01.768Z,1009.08
2017-02-01T12:26:58.292Z,1009.02
2017-02-01T12:31:55.768Z,1009.00
2017-02-01T12:36:51.729Z,1008.88
2017-02-01T12:41:47.951Z,1008.76
2017-02-01T12:46:44.383Z,1008.65
2017-02-01T12:51:40.786Z,1008.55
2017-02-01T12:56:37.373Z,1008.59
2017-02-01T13:01:34.497Z,1008.57
2017-02-01T13:06:30.846Z,1008.56
2017-02-01T13:11:27.736Z,1008.36
2017-02-01T13:16:23.649Z,1008.39
2017-02-01T13:21:20.390Z,1008.28
2017-02-01T13:26:16.986Z,1008.37
2017-02-01T13:31:13.469Z,1008.18
2017-02-01T13:36:10.147Z,1008.19
2017-02-01T13:41:06.530Z,1008.18
2017-02-01T13:46:02.776Z,1008.03
2017-02-01T13:50:59.203Z,1007.79
2017-02-01T13:55:55.449Z,1007.77
2017-02-01T14:00:51.801Z,1007.73
2017-02-01T14:05:48.877Z,1007.69
2017-02-01T14:10:45.371Z,1007.66
2017-02-01T14:15:42.872Z,1007.73
2017-02-01T14:20:39.096Z,1007.72
2017-02-01T14:25:36.068Z,1007.90
2017-02-01T14:30:32.394Z,1007.86
2017-02-01T14:35:29.625Z,1007.61
2017-02-01T14:40:25.946Z,1007.81
2017-02-01T14:45:22.427Z,1007.82
2017-02-01T14:50:19.944Z,1007.82
2017-02-01T14:55:16.293Z,1007.78
2017-02-01T15:00:13.573Z,1007.81
2017-02-01T15:05:10.210Z,1007.78
2017-02-01T15:10:06.560Z,1007.82
2017-02-01T15:15:02.909Z,1007.76
2017-02-01T15:19:59.293Z,1007.62
2017-02-01T15:24:55.645Z,1007.53
2017-02-01T15:29:52.764Z,1007.46
2017-02-01T15:34:49.188Z,1007.34
2017-02-01T15:39:46.666Z,1007.21
2017-02-01T15:44:43.257Z,1007.35
2017-02-01T15:49:39.960Z,1007.18
2017-02-01T15:54:36.326Z,1007.24
2017-02-01T15:59:32.835Z,1007.25
2017-02-01T16:04:29.893Z,1007.22
2017-02-01T16:09:26.228Z,1007.11
2017-02-01T16:14:22.651Z,1007.19
2017-02-01T16:19:19.121Z,1007.18
2017-02-01T16:24:16.234Z,1007.13
2017-02-01T16:29:13.101Z,1007.17
2017-02-01T16:34:10.605Z,1007.10
2017-02-01T16:39:06.658Z,1007.04
2017-02-01T16:44:02.948Z,1007.06
2017-02-01T16:48:59.352Z,1007.03
2017-02-01T16:53:56.656Z,1007.10
2017-02-01T16:58:53.296Z,1006.90
2017-02-01T17:03:50.118Z,1006.97
2017-02-01T17:08:46.522Z,1006.95
2017-02-01T17:13:43.079Z,1006.79
2017-02-01T17:18:39.457Z,1006.72
2017-02-01T17:23:35.932Z,1006.80
2017-02-01T17:28:32.397Z,1006.67
2017-02-01T17:33:28.995Z,1006.72
2017-02-01T17:38:25.435Z,1006.72
2017-02-01T17:43:21.533Z,1006.72
2017-02-01T17:48:17.744Z,1006.77
2017-02-01T17:53:13.901Z,1006.79
2017-02-01T17:58:10.200Z,1006.64
2017-02-01T18:03:06.718Z,1006.69
2017-02-01T18:08:02.756Z,1006.73
2017-02-01T18:12:59.002Z,1006.63
2017-02-01T18:17:56.134Z,1006.58
2017-02-01T18:22:52.514Z,1006.63
2017-02-01T18:27:49.167Z,1006.64
2017-02-01T18:32:45.812Z,1006.64
2017-02-01T18:37:42.443Z,1006.56
2017-02-01T18:42:38.661Z,1006.63
2017-02-01T18:47:34.756Z,1006.54
2017-02-01T18:52:31.275Z,1006.53
2017-02-01T18:57:32.213Z,1006.55
2017-02-01T19:02:27.997Z,1006.41
2017-02-01T19:07:24.487Z,1006.36
2017-02-01T19:12:21.991Z,1006.37
2017-02-01T19:17:18.753Z,1006.39
2017-02-01T19:22:15.946Z,1006.33
2017-02-01T19:27:12.831Z,1006.24
2017-02-01T19:32:09.325Z,1006.21
2017-02-01T19:37:05.705Z,1006.28
2017-02-01T19:42:02.802Z,1006.20
2017-02-01T19:46:59.262Z,1006.18
2017-02-01T19:51:55.994Z,1006.17
2017-02-01T19:56:52.320Z,1006.25
2017-02-01T20:01:49.040Z,1006.33
2017-02-01T20:06:44.900Z,1006.37
2017-02-01T20:11:41.703Z,1006.18
2017-02-01T20:16:38.116Z,1006.14
2017-02-01T20:21:35.376Z,1006.04
2017-02-01T20:26:33.723Z,1005.96
2017-02-01T20:31:29.499Z,1005.93
2017-02-01T20:36:25.969Z,1006.01
2017-02-01T20:41:23.458Z,1005.91
2017-02-01T20:46:20.381Z,1005.93
2017-02-01T20:51:16.836Z,1005.91
2017-02-01T20:56:14.440Z,1005.91
2017-02-01T21:01:10.740Z,1005.94
2017-02-01T21:06:07.540Z,1005.93
2017-02-01T21:11:03.905Z,1005.82
2017-02-01T21:16:01.662Z,1005.75
2017-02-01T21:20:58.163Z,1005.77
2017-02-01T21:25:54.500Z,1005.77
2017-02-01T21:30:51.044Z,1005.74
2017-02-01T21:35:47.273Z,1005.70
2017-02-01T21:40:43.587Z,1005.74
2017-02-01T21:45:40.788Z,1005.67
2017-02-01T21:50:37.187Z,1005.67
2017-02-01T21:55:33.764Z,1005.66
2017-02-01T22:00:30.365Z,1005.56
2017-02-01T22:05:26.565Z,1005.53
2017-02-01T22:10:23.466Z,1005.44
2017-02-01T22:15:19.462Z,1005.44
2017-02-01T22:20:16.443Z,1005.42
2017-02-01T22:25:12.926Z,1005.48
2017-02-01T22:30:10.021Z,1005.39
2017-02-01T22:35:06.830Z,1005.34
2017-02-01T22:40:03.262Z,1005.36
2017-02-01T22:44:59.921Z,1005.38
2017-02-01T22:49:56.601Z,1005.35
2017-02-01T22:54:53.338Z,1005.30
2017-02-01T22:59:49.809Z,1005.28
2017-02-01T23:04:46.240Z,1005.31
2017-02-01T23:09:42.585Z,1005.21
2017-02-01T23:14:39.420Z,1005.21
2017-02-01T23:19:35.800Z,1005.12
2017-02-01T23:24:31.882Z,1005.14
2017-02-01T23:29:28.490Z,1005.19
2017-02-01T23:34:24.941Z,1005.09
2017-02-01T23:39:21.456Z,1005.14
2017-02-01T23:44:18.121Z,1005.05
2017-02-01T23:49:14.852Z,1004.93
2017-02-01T23:54:11.438Z,1004.79
2017-02-01T23:59:07.652Z,1004.83
